createdAt,value
2023-02-10T00:00:18.731Z,-1.44
2023-02-10T00:03:21.411Z,-1.54
2023-02-10T00:06:26.518Z,-1.60
2023-02-10T00:09:29.192Z,-1.60
2023-02-10T00:12:31.887Z,-1.58
2023-02-10T00:15:35.903Z,-1.52
2023-02-10T00:18:38.543Z,-1.60
2023-02-10T00:21:41.295Z,-1.62
2023-02-10T00:24:43.923Z,-1.57
2023-02-10T00:27:46.561Z,-1.65
2023-02-10T00:30:50.762Z,-1.83
2023-02-10T00:33:53.444Z,-1.91
2023-02-10T00:36:56.112Z,-1.94
2023-02-10T00:40:00.567Z,-1.80
2023-02-10T00:43:03.360Z,-1.89
2023-02-10T00:46:08.203Z,-2.02
2023-02-10T00:49:12.256Z,-2.02
2023-02-10T00:52:14.895Z,-2.16
2023-02-10T00:55:17.513Z,-2.11
2023-02-10T00:58:20.165Z,-2.08
2023-02-10T01:01:24.398Z,-2.02
2023-02-10T01:04:27.181Z,-2.17
2023-02-10T01:07:30.376Z,-2.18
2023-02-10T01:10:35.705Z,-2.25
2023-02-10T01:13:39.474Z,-2.25
2023-02-10T01:16:43.747Z,-2.29
2023-02-10T01:19:48.659Z,-2.24
2023-02-10T01:22:51.740Z,-2.14
2023-02-10T01:25:54.352Z,-2.12
2023-02-10T01:28:57.053Z,-2.13
2023-02-10T01:32:01.030Z,-2.25
2023-02-10T01:35:03.796Z,-2.32
2023-02-10T01:38:06.415Z,-2.30
2023-02-10T01:41:10.501Z,-2.36
2023-02-10T01:44:54.979Z,-2.44
2023-02-10T01:47:59.357Z,-2.59
2023-02-10T01:51:06.420Z,-2.61
2023-02-10T01:54:34.839Z,-2.52
2023-02-10T01:57:39.415Z,-2.61
2023-02-10T02:00:42.279Z,-2.62
2023-02-10T02:03:46.597Z,-2.54
2023-02-10T02:06:50.224Z,-2.54
2023-02-10T02:09:54.617Z,-2.54
2023-02-10T02:13:00.545Z,-2.75
2023-02-10T02:16:13.131Z,-2.86
2023-02-10T02:19:42.963Z,-2.69
2023-02-10T02:23:12.714Z,-2.65
2023-02-10T02:26:47.723Z,-2.63
2023-02-10T02:30:10.718Z,-2.62
2023-02-10T02:33:20.350Z,-2.50
2023-02-10T02:36:29.496Z,-2.65
2023-02-10T02:39:32.202Z,-2.62
2023-02-10T02:42:35.556Z,-2.55
2023-02-10T02:45:51.020Z,-2.63
2023-02-10T02:49:02.109Z,-2.63
2023-02-10T02:52:07.665Z,-2.54
2023-02-10T02:55:16.022Z,-2.59
2023-02-10T02:58:22.524Z,-2.75
2023-02-10T03:01:32.132Z,-2.68
2023-02-10T03:04:37.049Z,-2.70
2023-02-10T03:07:39.709Z,-2.81
2023-02-10T03:10:42.412Z,-2.92
2023-02-10T03:13:45.101Z,-2.96
2023-02-10T03:16:48.287Z,-2.84
2023-02-10T03:19:52.478Z,-2.84
2023-02-10T03:22:55.136Z,-2.87
2023-02-10T03:25:59.525Z,-2.91
2023-02-10T03:29:02.204Z,-2.76
2023-02-10T03:32:06.256Z,-2.84
2023-02-10T03:35:10.426Z,-2.88
2023-02-10T03:38:13.252Z,-2.87
2023-02-10T03:41:16.018Z,-2.84
2023-02-10T03:44:18.664Z,-2.87
2023-02-10T03:47:21.448Z,-2.75
2023-02-10T03:50:25.527Z,-2.73
2023-02-10T03:53:29.876Z,-2.70
2023-02-10T03:56:32.475Z,-2.83
2023-02-10T03:59:35.547Z,-2.91
2023-02-10T04:02:38.378Z,-2.88
2023-02-10T04:05:42.807Z,-2.90
2023-02-10T04:08:46.466Z,-2.93
2023-02-10T04:11:49.254Z,-3.01
2023-02-10T04:14:51.902Z,-2.96
2023-02-10T04:17:54.638Z,-3.01
2023-02-10T04:20:59.193Z,-2.98
2023-02-10T04:24:01.874Z,-2.97
2023-02-10T04:27:04.936Z,-2.96
2023-02-10T04:30:08.764Z,-3.01
2023-02-10T04:33:12.644Z,-3.05
2023-02-10T04:36:16.713Z,-3.07
2023-02-10T04:39:19.370Z,-3.13
2023-02-10T04:42:30.728Z,-3.14
2023-02-10T04:45:33.756Z,-3.31
2023-02-10T04:48:36.622Z,-3.24
2023-02-10T04:51:40.598Z,-3.16
2023-02-10T04:54:43.363Z,-3.19
2023-02-10T04:57:46.010Z,-3.17
2023-02-10T05:00:48.694Z,-3.21
2023-02-10T05:03:51.435Z,-3.21
2023-02-10T05:06:59.122Z,-3.23
2023-02-10T05:10:01.917Z,-3.19
2023-02-10T05:13:04.910Z,-3.33
2023-02-10T05:16:08.368Z,-3.28
2023-02-10T05:19:24.644Z,-3.22
2023-02-10T05:23:14.775Z,-3.15
2023-02-10T05:27:15.416Z,-3.15
2023-02-10T05:35:00.982Z,-3.25
2023-02-10T05:42:59.521Z,-3.38
2023-02-10T05:54:05.399Z,-3.60
2023-02-10T06:17:29.083Z,-3.48
2023-02-10T06:21:14.634Z,-3.48
2023-02-10T06:25:12.354Z,-3.54
2023-02-10T06:29:13.291Z,-3.35
2023-02-10T06:37:24.199Z,-3.39
2023-02-10T06:41:40.564Z,-3.36
2023-02-10T06:45:43.094Z,-3.21
2023-02-10T07:11:58.390Z,-2.92
2023-02-10T07:15:13.284Z,-2.82
2023-02-10T07:18:22.379Z,-2.78
2023-02-10T07:29:58.724Z,-2.53
2023-02-10T07:33:15.684Z,-2.38
2023-02-10T07:44:07.436Z,-1.94
2023-02-10T08:23:17.613Z,-1.11
2023-02-10T08:31:27.675Z,-0.92
2023-02-10T09:23:55.832Z,1.16
2023-02-10T09:49:00.053Z,2.89
2023-02-10T09:52:42.788Z,6.69
2023-02-10T09:56:26.184Z,9.81
2023-02-10T10:30:58.563Z,17.02
2023-02-10T10:34:18.958Z,17.86
2023-02-10T10:41:24.298Z,17.41
2023-02-10T10:48:54.997Z,15.60
2023-02-10T10:52:11.173Z,16.19
2023-02-10T10:59:08.044Z,15.20
2023-02-10T11:02:31.179Z,14.29
2023-02-10T11:06:20.008Z,13.87
2023-02-10T11:13:45.918Z,15.01
2023-02-10T11:17:14.535Z,15.25
2023-02-10T11:20:47.233Z,15.43
2023-02-10T11:24:39.933Z,15.25
2023-02-10T11:28:17.319Z,16.30
2023-02-10T11:32:12.818Z,17.16
2023-02-10T14:15:48.358Z,11.39
2023-02-10T14:24:50.734Z,11.16
2023-02-10T14:28:34.384Z,10.75
2023-02-10T15:09:56.689Z,8.84
2023-02-10T15:14:03.664Z,8.38
2023-02-10T15:17:38.189Z,8.10
2023-02-10T15:21:16.233Z,8.05
2023-02-10T15:25:25.255Z,7.91
2023-02-10T15:37:04.173Z,7.37
2023-02-10T15:40:51.144Z,7.23
2023-02-10T15:45:18.610Z,7.16
2023-02-10T15:48:39.399Z,6.88
2023-02-10T15:52:17.858Z,6.95
2023-02-10T15:55:43.260Z,6.84
2023-02-10T15:58:46.365Z,6.66
2023-02-10T16:01:50.411Z,6.51
2023-02-10T16:04:53.573Z,6.27
2023-02-10T16:08:05.017Z,5.93
2023-02-10T16:11:07.990Z,5.62
2023-02-10T16:14:10.645Z,5.42
2023-02-10T16:17:21.792Z,5.18
2023-02-10T16:20:28.107Z,4.94
2023-02-10T16:23:31.102Z,4.74
2023-02-10T16:26:33.813Z,4.58
2023-02-10T16:29:36.564Z,4.38
2023-02-10T16:32:40.651Z,4.26
2023-02-10T16:35:45.505Z,4.13
2023-02-10T16:38:51.590Z,3.95
2023-02-10T16:41:55.664Z,3.90
2023-02-10T16:44:58.343Z,3.83
2023-02-10T16:48:03.689Z,3.76
2023-02-10T16:51:07.157Z,3.72
2023-02-10T16:54:10.451Z,3.65
2023-02-10T16:57:13.369Z,3.65
2023-02-10T17:00:17.817Z,3.57
2023-02-10T17:03:23.424Z,3.48
2023-02-10T17:06:27.516Z,3.41
2023-02-10T17:09:30.242Z,3.38
2023-02-10T17:12:34.198Z,3.29
2023-02-10T17:15:37.052Z,3.30
2023-02-10T17:18:41.065Z,3.30
2023-02-10T17:21:44.844Z,3.27
2023-02-10T17:24:47.506Z,3.36
2023-02-10T17:37:26.986Z,3.14
2023-02-10T18:49:58.890Z,2.37
2023-02-10T18:53:46.566Z,2.34
2023-02-10T19:00:47.362Z,2.32
2023-02-10T19:09:06.837Z,2.20
2023-02-10T19:39:49.938Z,1.76
2023-02-10T20:03:08.321Z,1.49
2023-02-10T20:10:40.497Z,1.43
2023-02-10T20:14:20.678Z,1.34
2023-02-10T20:38:43.555Z,1.18
2023-02-10T20:42:39.851Z,1.22
2023-02-10T20:46:20.215Z,1.24
2023-02-10T20:49:36.608Z,1.25
2023-02-10T20:52:50.332Z,1.10
2023-02-10T21:13:40.598Z,0.84
2023-02-10T21:44:19.025Z,0.43
2023-02-10T21:48:06.091Z,0.46
2023-02-10T21:59:58.419Z,0.55
2023-02-10T22:03:46.618Z,0.60
2023-02-10T22:07:29.370Z,0.65
2023-02-10T22:10:44.494Z,0.59
2023-02-10T22:14:17.973Z,0.44
2023-02-10T22:18:08.983Z,0.36
2023-02-10T22:21:30.416Z,0.31
2023-02-10T22:32:51.685Z,0.27
2023-02-10T22:36:34.387Z,0.17
2023-02-10T22:40:18.056Z,0.11
2023-02-10T22:48:12.205Z,0.18
2023-02-10T22:52:03.112Z,0.26
2023-02-10T22:56:04.518Z,0.11
2023-02-10T22:59:55.181Z,0.04
2023-02-10T23:03:17.928Z,0.06
2023-02-10T23:06:27.676Z,0.04
2023-02-10T23:09:39.987Z,0.02
2023-02-10T23:12:48.577Z,0.06
2023-02-10T23:15:55.486Z,-0.13
2023-02-10T23:19:11.791Z,-0.11
2023-02-10T23:22:26.117Z,-0.17
2023-02-10T23:25:46.347Z,-0.12
2023-02-10T23:28:49.516Z,-0.09
2023-02-10T23:31:52.646Z,-0.05
2023-02-10T23:34:56.832Z,0.02
2023-02-10T23:37:59.892Z,-0.09
2023-02-10T23:41:02.625Z,-0.10
2023-02-10T23:44:06.839Z,-0.20
2023-02-10T23:47:09.937Z,-0.21
2023-02-10T23:50:14.053Z,-0.26
2023-02-10T23:53:17.097Z,-0.19
2023-02-10T23:56:22.419Z,-0.13
2023-02-10T23:59:25.736Z,-0.09
